Time,TemperatureF,DewpointF,PressureIn,WindDirection,WindDirectionDegrees,WindSpeedMPH,WindSpeedGustMPH,Humidity,HourlyPrecipIn,Conditions,Clouds,dailyrainin,SoftwareType,DateUTC
2013-05-01 00:00:00,70.9,63.3,29.24,ESE,112,4.0,10.0,77,0.00,,SKC,0.00,VWS V14.01,2013-05-01 05:00:00,
2013-05-01 00:30:00,69.8,63.0,29.29,ESE,112,3.0,9.0,79,0.00,,SKC,0.00,VWS V14.01,2013-05-01 05:30:00,
2013-05-01 01:00:00,68.9,62.8,29.02,ESE,112,2.0,6.0,81,0.00,,SKC,0.00,VWS V14.01,2013-05-01 06:00:00,
2013-05-01 01:30:00,68.1,62.8,29.38,ESE,112,3.0,6.0,83,0.00,,SKC,0.00,VWS V14.01,2013-05-01 06:30:00,
2013-05-01 02:00:00,67.2,62.5,29.45,ESE,112,1.0,4.0,85,0.00,,SKC,0.00,VWS V14.01,2013-05-01 07:00:00,
2013-05-01 02:30:00,66.2,61.9,29.08,ESE,112,0.0,1.0,86,0.00,,SKC,0.00,VWS V14.01,2013-05-01 07:30:00,
2013-05-01 03:00:00,65.3,61.7,29.15,ESE,112,0.0,2.0,88,0.00,,SKC,0.00,VWS V14.01,2013-05-01 08:00:00,
2013-05-01 03:30:00,65.2,61.9,29.60,ESE,112,1.0,4.0,89,0.00,,SKC,0.00,VWS V14.01,2013-05-01 08:30:00,
2013-05-01 04:00:00,65.2,61.9,29.46,ESE,112,2.0,7.0,89,0.00,,SKC,0.00,VWS V14.01,2013-05-01 09:00:00,
2013-05-01 04:30:00,64.7,61.4,29.76,SE,135,2.0,7.0,89,0.00,,SKC,0.00,VWS V14.01,2013-05-01 09:30:00,
2013-05-01 05:00:00,64.4,61.4,29.48,ESE,112,4.0,9.0,90,0.00,,SKC,0.00,VWS V14.01,2013-05-01 10:00:00,
2013-05-01 05:30:00,64.1,61.4,29.82,ESE,112,3.0,9.0,91,0.00,,SKC,0.00,VWS V14.01,2013-05-01 10:30:00,
2013-05-01 06:00:00,64.1,61.4,29.82,ESE,112,3.0,8.0,91,0.00,,SKC,0.00,VWS V14.01,2013-05-01 11:00:00,
2013-05-01 06:30:00,64.6,62.2,29.84,ESE,112,3.0,8.0,92,0.00,,SKC,0.00,VWS V14.01,2013-05-01 11:30:00,
2013-05-01 07:00:00,64.6,62.2,29.72,ESE,112,4.0,10.0,92,0.00,,SKC,0.00,VWS V14.01,2013-05-01 12:00:00,
2013-05-01 07:30:00,65.1,62.7,29.69,ESE,112,4.0,9.0,92,0.00,,SKC,0.00,VWS V14.01,2013-05-01 12:30:00,
2013-05-01 08:00:00,65.9,63.5,29.83,SE,135,4.0,10.0,92,0.00,,SKC,0.00,VWS V14.01,2013-05-01 13:00:00,
2013-05-01 08:30:00,65.1,62.7,29.69,ESE,112,4.0,9.0,92,0.00,,SKC,0.00,VWS V14.01,2013-05-01 13:30:00,
2013-05-01 09:00:00,65.9,63.5,29.83,SE,135,4.0,10.0,92,0.00,,SKC,0.00,VWS V14.01,2013-05-01 14:00:00,
2013-05-01 09:05:00,69.6,65.2,29.53,South,176,5.0,10.0,86,0.00,,SKC,0.00,VWS V14.01,2013-05-01 14:05:00,
2013-05-01 09:11:00,69.7,65.3,29.29,SSE,148,3.0,10.0,86,0.00,,SKC,0.00,VWS V14.01,2013-05-01 14:11:00,
2013-05-01 09:17:00,69.9,65.5,29.37,SE,142,6.0,11.0,86,0.00,,SKC,0.00,VWS V14.01,2013-05-01 14:17:00,
2013-05-01 09:23:00,70.4,66.0,29.32,East,101,6.0,11.0,86,0.00,,SKC,0.00,VWS V14.01,2013-05-01 14:23:00,
2013-05-01 09:29:00,70.4,65.7,29.32,SSE,155,3.0,11.0,85,0.00,,SKC,0.00,VWS V14.01,2013-05-01 14:29:00,
2013-05-01 09:30:00,70.5,65.8,29.30,SSE,159,5.0,11.0,85,0.00,,SKC,0.00,VWS V14.01,2013-05-01 14:30:00,
2013-05-01 09:35:00,71.1,66.4,29.29,SE,126,5.0,10.0,85,0.00,,SKC,0.00,VWS V14.01,2013-05-01 14:35:00,
2013-05-01 09:41:00,71.6,66.5,29.32,SSE,155,3.0,10.0,84,0.00,,SKC,0.00,VWS V14.01,2013-05-01 14:41:00,
2013-05-01 09:47:00,71.4,66.0,29.29,SSE,148,3.0,10.0,83,0.00,,SKC,0.00,VWS V14.01,2013-05-01 14:47:00,
2013-05-01 09:53:00,71.2,66.1,29.26,South,179,2.0,11.0,84,0.00,,SKC,0.00,VWS V14.01,2013-05-01 14:53:00,
2013-05-01 09:59:00,71.7,66.3,29.31,SSW,211,6.0,11.0,83,0.00,,SKC,0.00,VWS V14.01,2013-05-01 14:59:00,
2013-05-01 10:00:00,71.5,66.1,29.32,SSE,162,5.0,11.0,83,0.00,,SKC,0.00,VWS V14.01,2013-05-01 15:00:00,
2013-05-01 10:05:00,71.3,65.9,29.32,South,181,7.0,7.0,83,0.00,,SKC,0.00,VWS V14.01,2013-05-01 15:05:00,
2013-05-01 10:11:00,71.1,65.7,29.31,South,174,1.0,8.0,83,0.00,,SKC,0.00,VWS V14.01,2013-05-01 15:11:00,
2013-05-01 10:17:00,71.1,66.0,29.29,SE,126,3.0,8.0,84,0.00,,SKC,0.00,VWS V14.01,2013-05-01 15:17:00,
2013-05-01 10:23:00,71.5,66.4,29.33,South,178,2.0,8.0,84,0.00,,SKC,0.00,VWS V14.01,2013-05-01 15:23:00,
2013-05-01 10:29:00,71.6,66.2,29.40,SSW,213,2.0,8.0,83,0.00,,SKC,0.00,VWS V14.01,2013-05-01 15:29:00,
2013-05-01 10:30:00,70.5,65.8,29.30,SSE,159,5.0,11.0,85,0.00,,SKC,0.00,VWS V14.01,2013-05-01 15:30:00,
2013-05-01 10:35:00,71.5,66.1,29.39,South,178,3.0,7.0,83,0.00,,SKC,0.00,VWS V14.01,2013-05-01 15:35:00,
2013-05-01 10:41:00,71.7,65.9,29.34,South,173,2.0,7.0,82,0.00,,SKC,0.00,VWS V14.01,2013-05-01 15:41:00,
2013-05-01 10:47:00,72.0,66.2,29.32,SW,219,5.0,7.0,82,0.00,,SKC,0.00,VWS V14.01,2013-05-01 15:47:00,
2013-05-01 10:53:00,72.1,65.9,29.33,SSE,167,5.0,8.0,81,0.00,,SKC,0.00,VWS V14.01,2013-05-01 15:53:00,
2013-05-01 10:59:00,72.5,66.3,29.31,SW,220,5.0,8.0,81,0.00,,SKC,0.00,VWS V14.01,2013-05-01 15:59:00,
2013-05-01 11:00:00,71.5,66.1,29.32,SSE,162,5.0,11.0,83,0.00,,SKC,0.00,VWS V14.01,2013-05-01 16:00:00,
2013-05-01 11:05:00,72.9,66.4,29.32,ESE,120,2.0,6.0,80,0.00,,SKC,0.00,VWS V14.01,2013-05-01 16:05:00,
2013-05-01 11:11:00,73.3,66.4,29.26,SSE,162,6.0,10.0,79,0.00,,SKC,0.00,VWS V14.01,2013-05-01 16:11:00,
2013-05-01 11:17:00,73.5,66.2,29.27,SE,136,4.0,10.0,78,0.00,,SKC,0.00,VWS V14.01,2013-05-01 16:17:00,
2013-05-01 11:23:00,73.8,66.5,29.30,East,88,3.0,10.0,78,0.00,,SKC,0.00,VWS V14.01,2013-05-01 16:23:00,
2013-05-01 11:29:00,74.7,67.0,29.29,SE,130,5.0,12.0,77,0.00,,SKC,0.00,VWS V14.01,2013-05-01 16:29:00,
2013-05-01 11:30:00,71.6,66.2,29.40,WSW,244,3.0,8.0,83,0.00,,SKC,0.00,VWS V14.01,2013-05-01 16:30:00,
2013-05-01 11:35:00,74.9,66.8,29.24,SSE,152,5.0,9.0,76,0.00,,SKC,0.00,VWS V14.01,2013-05-01 16:35:00,
2013-05-01 11:41:00,75.2,67.1,29.24,ESE,113,10.0,11.0,76,0.00,,SKC,0.00,VWS V14.01,2013-05-01 16:41:00,
2013-05-01 11:47:00,76.2,67.7,29.23,South,190,7.0,11.0,75,0.00,,SKC,0.00,VWS V14.01,2013-05-01 16:47:00,
2013-05-01 11:53:00,76.5,67.2,29.17,East,96,8.0,11.0,73,0.00,,SKC,0.00,VWS V14.01,2013-05-01 16:53:00,
2013-05-01 11:59:00,77.1,67.0,29.20,SE,143,5.0,11.0,71,0.00,,SKC,0.00,VWS V14.01,2013-05-01 16:59:00,
2013-05-01 12:00:00,72.6,66.1,29.31,SE,139,5.0,8.0,80,0.00,,SKC,0.00,VWS V14.01,2013-05-01 17:00:00,
2013-05-01 12:05:00,77.1,67.4,29.20,ESE,109,10.0,10.0,72,0.00,,SKC,0.00,VWS V14.01,2013-05-01 17:05:00,
2013-05-01 12:11:00,77.3,67.2,29.20,South,171,5.0,10.0,71,0.00,,SKC,0.00,VWS V14.01,2013-05-01 17:11:00,
2013-05-01 12:17:00,77.2,67.1,29.20,SSW,201,3.0,10.0,71,0.00,,SKC,0.00,VWS V14.01,2013-05-01 17:17:00,
2013-05-01 12:23:00,77.5,67.4,29.20,ESE,117,2.0,10.0,71,0.00,,SKC,0.00,VWS V14.01,2013-05-01 17:23:00,
2013-05-01 12:29:00,78.0,67.4,29.32,South,169,3.0,10.0,70,0.00,,SKC,0.00,VWS V14.01,2013-05-01 17:29:00,
2013-05-01 12:30:00,74.7,67.0,29.29,South,184,1.0,12.0,77,0.00,,SKC,0.00,VWS V14.01,2013-05-01 17:30:00,
2013-05-01 12:35:00,78.3,66.9,29.38,SSW,204,7.0,7.0,68,0.00,,SKC,0.00,VWS V14.01,2013-05-01 17:35:00,
2013-05-01 12:41:00,78.5,67.5,29.38,SSW,197,3.0,10.0,69,0.00,,SKC,0.00,VWS V14.01,2013-05-01 17:41:00,
2013-05-01 12:47:00,78.9,67.0,28.25,SE,134,3.0,10.0,67,0.00,,SKC,0.00,VWS V14.01,2013-05-01 17:47:00,
2013-05-01 12:53:00,79.0,67.6,28.25,South,169,4.0,10.0,68,0.00,,SKC,0.00,VWS V14.01,2013-05-01 17:53:00,
2013-05-01 12:59:00,79.4,67.5,28.25,SSW,202,6.0,10.0,67,0.00,,SKC,0.00,VWS V14.01,2013-05-01 17:59:00,
2013-05-01 13:00:00,77.2,67.9,29.20,SE,143,5.0,11.0,73,0.00,,SKC,0.00,VWS V14.01,2013-05-01 18:00:00,
2013-05-01 13:05:00,80.2,68.3,28.25,SE,140,2.0,6.0,67,0.00,,SKC,0.00,VWS V14.01,2013-05-01 18:05:00,
2013-05-01 13:11:00,80.0,67.2,28.67,SE,138,5.0,9.0,65,0.00,,SKC,0.00,VWS V14.01,2013-05-01 18:11:00,
2013-05-01 13:17:00,80.5,68.1,28.67,SSW,209,5.0,9.0,66,0.00,,SKC,0.00,VWS V14.01,2013-05-01 18:17:00,
2013-05-01 13:24:00,80.8,67.5,28.67,SW,223,0.0,9.0,64,0.00,,SKC,0.00,VWS V14.01,2013-05-01 18:24:00,
2013-05-01 13:30:00,80.3,67.5,28.67,SW,216,3.0,9.0,65,0.00,,SKC,0.00,VWS V14.01,2013-05-01 18:30:00,
2013-05-01 13:36:00,80.1,67.7,28.67,SSE,151,1.0,3.0,66,0.00,,SKC,0.00,VWS V14.01,2013-05-01 18:36:00,
2013-05-01 13:42:00,79.8,66.6,28.67,SSE,161,2.0,3.0,64,0.00,,SKC,0.00,VWS V14.01,2013-05-01 18:42:00,
2013-05-01 13:48:00,80.1,66.8,28.67,South,182,2.0,7.0,64,0.00,,SKC,0.00,VWS V14.01,2013-05-01 18:48:00,
2013-05-01 13:54:00,80.2,67.4,28.67,SSE,148,1.0,7.0,65,0.00,,SKC,0.00,VWS V14.01,2013-05-01 18:54:00,
2013-05-01 14:00:00,81.6,66.9,28.67,SSE,155,4.0,8.0,61,0.00,,SKC,0.00,VWS V14.01,2013-05-01 19:00:00,
2013-05-01 14:06:00,82.1,66.4,28.59,ESE,108,5.0,7.0,59,0.00,,SKC,0.00,VWS V14.01,2013-05-01 19:06:00,
2013-05-01 14:12:00,82.3,66.1,28.59,East,96,10.0,10.0,58,0.00,,SKC,0.00,VWS V14.01,2013-05-01 19:12:00,
2013-05-01 14:18:00,82.2,65.5,28.59,East,101,2.0,10.0,57,0.00,,SKC,0.00,VWS V14.01,2013-05-01 19:18:00,
2013-05-01 14:24:00,82.5,65.8,28.59,ESE,111,8.0,10.0,57,0.00,,SKC,0.00,VWS V14.01,2013-05-01 19:24:00,
2013-05-01 14:30:00,81.8,65.1,28.59,SE,141,2.0,10.0,57,0.00,,SKC,0.00,VWS V14.01,2013-05-01 19:30:00,
2013-05-01 14:36:00,82.4,66.2,28.59,East,85,2.0,12.0,58,0.00,,SKC,0.00,VWS V14.01,2013-05-01 19:36:00,
2013-05-01 14:42:00,82.5,64.2,28.95,South,178,3.0,12.0,54,0.00,,SKC,0.00,VWS V14.01,2013-05-01 19:42:00,
2013-05-01 14:48:00,82.9,66.1,28.95,ESE,114,3.0,12.0,57,0.00,,SKC,0.00,VWS V14.01,2013-05-01 19:48:00,
2013-05-01 14:54:00,83.2,65.9,28.95,ENE,71,4.0,12.0,56,0.00,,SKC,0.00,VWS V14.01,2013-05-01 19:54:00,
2013-05-01 15:00:00,83.0,66.7,28.15,ESE,106,5.0,12.0,58,0.00,,SKC,0.00,VWS V14.01,2013-05-01 20:00:00,
2013-05-01 15:06:00,82.6,65.3,28.15,SE,136,5.0,11.0,56,0.00,,SKC,0.00,VWS V14.01,2013-05-01 20:06:00,
2013-05-01 15:12:00,82.1,65.4,29.19,SE,130,7.0,11.0,57,0.00,,SKC,0.00,VWS V14.01,2013-05-01 20:12:00,
2013-05-01 15:18:00,82.4,64.6,29.21,South,172,3.0,11.0,55,0.00,,SKC,0.00,VWS V14.01,2013-05-01 20:18:00,
2013-05-01 15:24:00,83.0,65.2,28.97,ESE,105,7.0,11.0,55,0.00,,SKC,0.00,VWS V14.01,2013-05-01 20:24:00,
2013-05-01 15:30:00,82.8,64.5,28.97,ESE,103,5.0,11.0,54,0.00,,SKC,0.00,VWS V14.01,2013-05-01 20:30:00,
2013-05-01 15:36:00,82.9,64.6,29.29,NE,56,3.0,9.0,54,0.00,,SKC,0.00,VWS V14.01,2013-05-01 20:36:00,
2013-05-01 15:42:00,83.1,63.7,29.29,East,94,9.0,10.0,52,0.00,,SKC,0.00,VWS V14.01,2013-05-01 20:42:00,
2013-05-01 15:48:00,83.0,64.1,29.29,SSE,157,2.0,10.0,53,0.00,,SKC,0.00,VWS V14.01,2013-05-01 20:48:00,
2013-05-01 15:54:00,83.2,63.8,29.29,ESE,109,2.0,10.0,52,0.00,,SKC,0.00,VWS V14.01,2013-05-01 20:54:00,
2013-05-01 16:00:00,83.4,63.4,29.29,East,94,2.0,10.0,51,0.00,,SKC,0.00,VWS V14.01,2013-05-01 21:00:00,
2013-05-01 16:06:00,83.5,62.9,29.29,East,93,6.0,9.0,50,0.00,,SKC,0.00,VWS V14.01,2013-05-01 21:06:00,
2013-05-01 16:12:00,83.7,63.1,29.29,East,94,3.0,9.0,50,0.00,,SKC,0.00,VWS V14.01,2013-05-01 21:12:00,
2013-05-01 16:18:00,83.4,62.8,29.29,ESE,103,1.0,9.0,50,0.00,,SKC,0.00,VWS V14.01,2013-05-01 21:18:00,
2013-05-01 16:24:00,83.4,62.3,29.09,ESE,107,2.0,9.0,49,0.00,,SKC,0.00,VWS V14.01,2013-05-01 21:24:00,
2013-05-01 16:30:00,83.8,62.6,29.09,ESE,120,7.0,9.0,49,0.00,,SKC,0.00,VWS V14.01,2013-05-01 21:30:00,
2013-05-01 16:36:00,83.8,62.0,29.09,ENE,66,2.0,8.0,48,0.00,,SKC,0.00,VWS V14.01,2013-05-01 21:36:00,
2013-05-01 16:42:00,84.0,62.8,29.18,East,90,5.0,8.0,49,0.00,,SKC,0.00,VWS V14.01,2013-05-01 21:42:00,
2013-05-01 16:48:00,84.3,64.8,29.24,ENE,69,0.0,8.0,52,0.00,,SKC,0.00,VWS V14.01,2013-05-01 21:48:00,
2013-05-01 16:54:00,84.4,63.2,29.24,NE,43,4.0,13.0,49,0.00,,SKC,0.00,VWS V14.01,2013-05-01 21:54:00,
2013-05-01 17:00:00,83.9,62.7,29.24,East,88,6.0,13.0,49,0.00,,SKC,0.00,VWS V14.01,2013-05-01 22:00:00,
2013-05-01 17:06:00,83.5,62.3,29.24,East,95,3.0,10.0,49,0.00,,SKC,0.00,VWS V14.01,2013-05-01 22:06:00,
2013-05-01 17:12:00,83.6,63.0,29.17,NE,49,3.0,10.0,50,0.00,,SKC,0.00,VWS V14.01,2013-05-01 22:12:00,
2013-05-01 17:18:00,83.8,63.2,29.17,NNE,30,1.0,10.0,50,0.00,,SKC,0.00,VWS V14.01,2013-05-01 22:18:00,
2013-05-01 17:24:00,84.0,62.8,29.20,East,96,2.0,10.0,49,0.00,,SKC,0.00,VWS V14.01,2013-05-01 22:24:00,
2013-05-01 17:30:00,84.1,62.9,29.20,East,94,5.0,10.0,49,0.00,,SKC,0.00,VWS V14.01,2013-05-01 22:30:00,
2013-05-01 17:36:00,84.1,62.3,29.20,South,170,2.0,8.0,48,0.00,,SKC,0.00,VWS V14.01,2013-05-01 22:36:00,
2013-05-01 17:42:00,84.2,64.7,29.20,SE,128,4.0,10.0,52,0.00,,SKC,0.00,VWS V14.01,2013-05-01 22:42:00,
2013-05-01 17:48:00,83.4,64.5,29.20,East,93,2.0,11.0,53,0.00,,SKC,0.00,VWS V14.01,2013-05-01 22:48:00,
2013-05-01 17:54:00,82.4,64.6,28.85,ENE,70,4.0,11.0,55,0.00,,SKC,0.00,VWS V14.01,2013-05-01 22:54:00,
2013-05-01 18:00:00,82.1,64.9,28.85,East,85,7.0,13.0,56,0.00,,SKC,0.00,VWS V14.01,2013-05-01 23:00:00,
2013-05-01 18:06:00,82.0,65.8,28.85,ESE,105,11.0,13.0,58,0.00,,SKC,0.00,VWS V14.01,2013-05-01 23:06:00,
2013-05-01 18:12:00,81.4,65.2,28.49,ENE,70,4.0,14.0,58,0.00,,SKC,0.00,VWS V14.01,2013-05-01 23:12:00,
2013-05-01 18:18:00,80.7,65.1,28.49,East,97,5.0,14.0,59,0.00,,SKC,0.00,VWS V14.01,2013-05-01 23:18:00,
2013-05-01 18:24:00,80.5,64.9,28.47,ESE,111,5.0,14.0,59,0.00,,SKC,0.00,VWS V14.01,2013-05-01 23:24:00,
2013-05-01 18:30:00,80.9,65.7,28.47,ENE,59,4.0,14.0,60,0.00,,SKC,0.00,VWS V14.01,2013-05-01 23:30:00,
2013-05-01 18:36:00,81.0,64.8,28.47,East,83,7.0,7.0,58,0.00,,SKC,0.00,VWS V14.01,2013-05-01 23:36:00,
2013-05-01 18:42:00,81.0,64.8,28.47,East,91,5.0,9.0,58,0.00,,SKC,0.00,VWS V14.01,2013-05-01 23:42:00,
2013-05-01 18:48:00,80.8,64.2,28.47,East,88,5.0,9.0,57,0.00,,SKC,0.00,VWS V14.01,2013-05-01 23:48:00,
2013-05-01 18:54:00,80.6,63.5,28.47,East,88,3.0,9.0,56,0.00,,SKC,0.00,VWS V14.01,2013-05-01 23:54:00,
2013-05-01 19:00:00,80.4,63.3,29.20,East,85,5.0,9.0,56,0.00,,SKC,0.00,VWS V14.01,2013-05-02 00:00:00,
2013-05-01 19:06:00,80.1,64.0,29.20,East,82,3.0,9.0,58,0.00,,SKC,0.00,VWS V14.01,2013-05-02 00:06:00,
2013-05-01 19:12:00,79.7,63.6,29.20,East,90,6.0,9.0,58,0.00,,SKC,0.00,VWS V14.01,2013-05-02 00:12:00,
2013-05-01 19:18:00,79.4,63.8,29.20,East,82,2.0,9.0,59,0.00,,SKC,0.00,VWS V14.01,2013-05-02 00:18:00,
2013-05-01 19:24:00,79.3,64.2,29.25,East,90,5.0,9.0,60,0.00,,SKC,0.00,VWS V14.01,2013-05-02 00:24:00,
2013-05-01 19:30:00,79.1,64.0,29.25,ENE,70,4.0,11.0,60,0.00,,SKC,0.00,VWS V14.01,2013-05-02 00:30:00,
2013-05-01 19:36:00,78.8,64.2,29.25,East,101,3.0,9.0,61,0.00,,SKC,0.00,VWS V14.01,2013-05-02 00:36:00,
2013-05-01 19:42:00,78.3,64.7,29.25,East,82,1.0,9.0,63,0.00,,SKC,0.00,VWS V14.01,2013-05-02 00:42:00,
2013-05-01 19:48:00,77.8,64.7,29.30,East,82,5.0,9.0,64,0.00,,SKC,0.00,VWS V14.01,2013-05-02 00:48:00,
2013-05-01 19:54:00,77.5,64.8,29.16,NE,43,4.0,9.0,65,0.00,,SKC,0.00,VWS V14.01,2013-05-02 00:54:00,
2013-05-01 20:00:00,77.1,64.9,28.85,NE,35,1.0,9.0,66,0.00,,SKC,0.00,VWS V14.01,2013-05-02 01:00:00,
2013-05-01 20:06:00,76.6,64.4,28.85,NNE,33,2.0,4.0,66,0.00,,SKC,0.00,VWS V14.01,2013-05-02 01:06:00,
2013-05-01 20:12:00,76.2,64.0,28.65,ENE,73,4.0,7.0,66,0.00,,SKC,0.00,VWS V14.01,2013-05-02 01:12:00,
2013-05-01 20:18:00,76.0,63.8,28.65,ENE,61,3.0,7.0,66,0.00,,SKC,0.00,VWS V14.01,2013-05-02 01:18:00,
2013-05-01 20:24:00,75.8,64.1,28.65,ENE,69,1.0,7.0,67,0.00,,SKC,0.00,VWS V14.01,2013-05-02 01:24:00,
2013-05-01 20:30:00,75.5,63.8,28.65,East,84,1.0,7.0,67,0.00,,SKC,0.00,VWS V14.01,2013-05-02 01:30:00,
2013-05-01 20:36:00,75.1,63.8,29.43,East,83,2.0,5.0,68,0.00,,SKC,0.00,VWS V14.01,2013-05-02 01:36:00,
2013-05-01 20:42:00,74.7,63.9,29.45,ENE,76,2.0,7.0,69,0.00,,SKC,0.00,VWS V14.01,2013-05-02 01:42:00,
2013-05-01 20:48:00,74.4,63.6,29.45,East,89,1.0,7.0,69,0.00,,SKC,0.00,VWS V14.01,2013-05-02 01:48:00,
2013-05-01 20:54:00,74.2,63.4,29.48,East,91,3.0,8.0,69,0.00,,SKC,0.00,VWS V14.01,2013-05-02 01:54:00,
2013-05-01 21:00:00,73.9,63.5,29.47,ENE,59,2.0,10.0,70,0.00,,SKC,0.00,VWS V14.01,2013-05-02 02:00:00,
2013-05-01 21:07:00,73.8,63.4,29.55,ENE,59,2.0,8.0,70,0.00,,SKC,0.00,VWS V14.01,2013-05-02 02:07:00,
2013-05-01 21:13:00,73.6,63.6,29.56,NNE,20,3.0,9.0,71,0.00,,SKC,0.00,VWS V14.01,2013-05-02 02:13:00,
2013-05-01 21:19:00,73.4,63.4,29.56,East,84,6.0,9.0,71,0.00,,SKC,0.00,VWS V14.01,2013-05-02 02:19:00,
2013-05-01 21:25:00,73.1,63.5,29.56,ENE,57,2.0,9.0,72,0.00,,SKC,0.00,VWS V14.01,2013-05-02 02:25:00,
2013-05-01 21:30:00,75.4,64.1,28.65,ENE,64,1.0,7.0,68,0.00,,SKC,0.00,VWS V14.01,2013-05-02 02:30:00,
2013-05-01 21:31:00,72.8,63.3,29.56,ENE,69,2.0,9.0,72,0.00,,SKC,0.00,VWS V14.01,2013-05-02 02:31:00,
2013-05-01 21:37:00,72.5,63.4,28.96,NE,45,2.0,6.0,73,0.00,,SKC,0.00,VWS V14.01,2013-05-02 02:37:00,
2013-05-01 21:43:00,72.3,63.2,29.05,ENE,59,1.0,9.0,73,0.00,,SKC,0.00,VWS V14.01,2013-05-02 02:43:00,
2013-05-01 21:49:00,71.9,63.2,28.91,NE,35,5.0,9.0,74,0.00,,SKC,0.00,VWS V14.01,2013-05-02 02:49:00,
2013-05-01 21:55:00,71.6,63.3,29.02,NE,52,2.0,9.0,75,0.00,,SKC,0.00,VWS V14.01,2013-05-02 02:55:00,
2013-05-01 22:00:00,73.9,63.5,29.47,ENE,64,7.0,10.0,70,0.00,,SKC,0.00,VWS V14.01,2013-05-02 03:00:00,
2013-05-01 22:01:00,71.4,63.5,29.02,East,87,2.0,9.0,76,0.00,,SKC,0.00,VWS V14.01,2013-05-02 03:01:00,
2013-05-01 22:07:00,71.1,63.5,29.02,ENE,70,4.0,8.0,77,0.00,,SKC,0.00,VWS V14.01,2013-05-02 03:07:00,
2013-05-01 22:13:00,70.8,63.2,29.30,ENE,69,0.0,8.0,77,0.00,,SKC,0.00,VWS V14.01,2013-05-02 03:13:00,
2013-05-01 22:19:00,70.4,63.2,29.39,NE,51,2.0,8.0,78,0.00,,SKC,0.00,VWS V14.01,2013-05-02 03:19:00,
2013-05-01 22:25:00,70.1,63.3,29.32,ENE,61,3.0,10.0,79,0.00,,SKC,0.00,VWS V14.01,2013-05-02 03:25:00,
2013-05-01 22:30:00,72.7,63.5,29.56,NE,56,3.0,9.0,73,0.00,,SKC,0.00,VWS V14.01,2013-05-02 03:30:00,
2013-05-01 22:31:00,69.8,63.0,29.30,NNE,26,6.0,10.0,79,0.00,,SKC,0.00,VWS V14.01,2013-05-02 03:31:00,
2013-05-01 22:37:00,69.6,63.2,29.65,NE,46,3.0,9.0,80,0.00,,SKC,0.00,VWS V14.01,2013-05-02 03:37:00,
2013-05-01 22:43:00,69.4,63.0,29.49,NNE,33,6.0,9.0,80,0.00,,SKC,0.00,VWS V14.01,2013-05-02 03:43:00,
2013-05-01 22:49:00,69.2,62.8,29.26,ENE,67,3.0,11.0,80,0.00,,SKC,0.00,VWS V14.01,2013-05-02 03:49:00,
2013-05-01 22:55:00,69.0,62.6,29.26,ENE,74,4.0,11.0,80,0.00,,SKC,0.00,VWS V14.01,2013-05-02 03:55:00,
2013-05-01 23:00:00,71.3,63.3,29.02,NE,36,6.0,9.0,76,0.00,,SKC,0.00,VWS V14.01,2013-05-02 04:00:00,
2013-05-01 23:01:00,68.8,62.7,29.27,East,90,2.0,11.0,81,0.00,,SKC,0.00,VWS V14.01,2013-05-02 04:01:00,
2013-05-01 23:04:00,68.7,62.6,29.27,ENE,71,8.0,10.0,81,0.00,,SKC,0.00,VWS V14.01,2013-05-02 04:04:00,
2013-05-01 23:10:00,68.5,62.5,29.32,NE,53,3.0,10.0,81,0.00,,SKC,0.00,VWS V14.01,2013-05-02 04:10:00,
2013-05-01 23:13:00,68.4,62.3,29.33,ENE,69,3.0,10.0,81,0.00,,SKC,0.00,VWS V14.01,2013-05-02 04:13:00,
2013-05-01 23:19:00,68.2,62.5,29.33,East,85,7.0,10.0,82,0.00,,SKC,0.00,VWS V14.01,2013-05-02 04:19:00,
2013-05-01 23:22:00,68.2,62.5,29.33,East,88,5.0,10.0,82,0.00,,SKC,0.00,VWS V14.01,2013-05-02 04:22:00,
2013-05-01 23:28:00,68.0,62.3,29.33,ESE,109,2.0,14.0,82,0.00,,SKC,0.00,VWS V14.01,2013-05-02 04:28:00,
2013-05-01 23:30:00,69.8,63.0,29.30,ENE,63,3.0,10.0,79,0.00,,SKC,0.00,VWS V14.01,2013-05-02 04:30:00,
2013-05-01 23:34:00,67.8,62.1,29.01,East,98,5.0,7.0,82,0.00,,SKC,0.00,VWS V14.01,2013-05-02 04:34:00,
2013-05-01 23:40:00,67.7,62.4,29.01,East,86,2.0,9.0,83,0.00,,SKC,0.00,VWS V14.01,2013-05-02 04:40:00,
2013-05-01 23:46:00,67.5,62.2,29.43,ENE,73,4.0,10.0,83,0.00,,SKC,0.00,VWS V14.01,2013-05-02 04:46:00,
2013-05-01 23:52:00,67.5,62.2,29.47,East,92,6.0,13.0,83,0.00,,SKC,0.00,VWS V14.01,2013-05-02 04:52:00,
2013-05-01 23:58:00,67.4,62.1,29.47,ENE,66,4.0,13.0,83,0.00,,SKC,0.00,VWS V14.01,2013-05-02 04:58:00,